Bellevue, WA

7:14 PM PDT on April 23, 2017 (GMT -0700)
| | Change Station

Elev -9999 ft 0.00 °N, 0.00 °E | Updated 11 minutes ago

Overcast
Overcast
°F
Feels Like °F
N
Wind Variable Wind from North
Gusts mph

Today
High -- | Low -- °F
--% Chance of Precip.
Yesterday
High -- | Low -- °F
Precip. -- in
Pressure 29.83 in
Visibility 10.0 miles
Clouds Few 1700 ft
Mostly Cloudy 7000 ft
Overcast 8000 ft
Dew Point Not available.
Humidity Not available.
Rainfall --
Snow Depth Not available.
6:04 AM 8:10 PM
Waning Crescent, 8% visible
METAR KBFI 240153Z 15008KT 10SM FEW017 BKN070 OVC080 09/09 A2983 RMK AO2 RAE29 SLP102 P0000 T00940089
Pressure 29.83 in
Visibility 10.0 miles
Clouds Few 1700 ft
Mostly Cloudy 7000 ft
Overcast 8000 ft
Dew Point Not available.
Humidity Not available.
Rainfall --
Snow Depth Not available.
6:04 AM 8:10 PM
Waning Crescent, 8% visible
METAR KBFI 240153Z 15008KT 10SM FEW017 BKN070 OVC080 09/09 A2983 RMK AO2 RAE29 SLP102 P0000 T00940089

Get Severe Weather Alerts

Thanks for signing up!

Be on the lookout for a verification email in your inbox.

You'll start receiving the daily forecast at 8 AM.

×

10-Day Weather Forecast

Almanac

Astronomy

Apr. 23, 2017 Rise Set
Actual Time
Civil Twilight
Nautical Twilight
Astronomical Twilight
Moon
Length of Visible Light
Length of Day
Tomorrow will be .
, % of the Moon is Illuminated

Today's Extremes

State Highs State Lows

Community

WunderPhotos

WunderBlog® & News

Nearby

Air Quality

  Air Quality AQ Index Pollutant
Not available.

Snow Depth

Station Depth Elevation

Earthquake Activity

City Distance Mag. Time & Date
Minimum magnitude displayed is 2.5.

Coastal Water Temperatures

Place Temperature

Stations

Nearby Weather Stations

Station Location Temp. Windchill Dew Point Humidity Wind Precip. Elev Updated Type
                   

Watches & Warnings

There are currently no watches in effect.